createdAt,value
2022-10-17T00:01:08.056Z,14.70
2022-10-17T00:06:13.891Z,18.10
2022-10-17T00:11:20.410Z,14.90
2022-10-17T00:21:27.225Z,13.20
2022-10-17T00:26:30.096Z,14.00
2022-10-17T00:31:32.905Z,15.40
2022-10-17T00:36:35.547Z,14.00
2022-10-17T00:41:38.162Z,15.60
2022-10-17T00:46:40.812Z,19.40
2022-10-17T00:51:46.898Z,17.50
2022-10-17T00:56:50.309Z,17.80
2022-10-17T01:02:11.750Z,17.70
2022-10-17T01:07:14.757Z,16.60
2022-10-17T01:12:22.474Z,11.60
2022-10-17T01:17:59.219Z,13.60
2022-10-17T01:23:19.107Z,21.20
2022-10-17T01:28:40.050Z,15.90
2022-10-17T01:34:03.880Z,12.50
2022-10-17T01:39:34.400Z,16.80
2022-10-17T01:44:50.183Z,9.30
2022-10-17T01:49:55.275Z,13.20
2022-10-17T01:55:08.633Z,12.70
2022-10-17T02:00:17.789Z,13.10
2022-10-17T02:05:24.677Z,14.50
2022-10-17T02:10:53.586Z,12.50
2022-10-17T02:16:04.846Z,14.20
2022-10-17T02:21:14.360Z,14.40
2022-10-17T02:26:28.938Z,16.40
2022-10-17T02:31:39.211Z,14.20
2022-10-17T02:36:49.910Z,19.10
2022-10-17T02:41:56.670Z,16.60
2022-10-17T02:47:31.851Z,21.90
2022-10-17T02:52:48.586Z,17.90
2022-10-17T02:57:56.099Z,19.30
2022-10-17T03:02:58.780Z,16.30
2022-10-17T03:08:01.399Z,14.80
2022-10-17T03:13:04.025Z,14.70
2022-10-17T03:18:06.727Z,12.90
2022-10-17T03:23:09.392Z,10.70
2022-10-17T03:28:12.602Z,12.50
2022-10-17T03:33:15.273Z,9.20
2022-10-17T03:38:17.898Z,10.10
2022-10-17T03:43:20.498Z,10.30
2022-10-17T03:48:23.137Z,9.50
2022-10-17T03:53:25.793Z,12.50
2022-10-17T03:58:29.008Z,10.60
2022-10-17T04:03:32.004Z,12.00
2022-10-17T04:08:35.215Z,8.50
2022-10-17T04:13:37.851Z,9.40
2022-10-17T04:18:41.098Z,9.90
2022-10-17T04:23:43.721Z,12.90
2022-10-17T04:28:46.513Z,13.40
2022-10-17T04:33:50.530Z,15.80
2022-10-17T04:38:53.137Z,17.90
2022-10-17T04:43:55.733Z,13.90
2022-10-17T04:48:58.551Z,13.90
2022-10-17T04:54:01.194Z,12.80
2022-10-17T04:59:03.844Z,11.40
2022-10-17T05:04:06.511Z,11.30
2022-10-17T05:09:09.136Z,14.40
2022-10-17T05:14:11.834Z,18.80
2022-10-17T05:19:14.445Z,21.90
2022-10-17T05:24:17.232Z,24.30
2022-10-17T05:29:19.891Z,17.80
2022-10-17T05:34:22.526Z,17.20
2022-10-17T05:39:25.296Z,16.80
2022-10-17T05:44:28.230Z,15.80
2022-10-17T05:49:39.971Z,15.50
2022-10-17T05:54:47.658Z,21.00
2022-10-17T05:59:50.556Z,26.10
2022-10-17T06:04:53.361Z,20.10
2022-10-17T06:09:56.021Z,22.90
2022-10-17T06:14:59.114Z,19.00
2022-10-17T06:20:02.086Z,18.40
2022-10-17T06:25:05.181Z,22.80
2022-10-17T06:30:08.366Z,18.60
2022-10-17T06:35:11.048Z,16.60
2022-10-17T06:40:16.949Z,18.00
2022-10-17T06:45:19.583Z,19.90
2022-10-17T06:50:22.477Z,18.20
2022-10-17T06:55:25.163Z,17.70
2022-10-17T07:00:28.424Z,23.20
2022-10-17T07:05:31.176Z,19.90
2022-10-17T07:10:38.296Z,21.00
2022-10-17T07:15:42.195Z,20.00
2022-10-17T07:20:53.042Z,24.40
2022-10-17T07:26:01.633Z,18.20
2022-10-17T07:31:13.348Z,20.70
2022-10-17T07:36:16.815Z,18.70
2022-10-17T07:41:21.793Z,20.00
2022-10-17T07:46:24.901Z,17.30
2022-10-17T07:51:28.400Z,17.00
2022-10-17T07:56:31.649Z,20.80
2022-10-17T08:01:34.245Z,17.50
2022-10-17T08:06:36.940Z,17.30
2022-10-17T08:11:39.680Z,17.80
2022-10-17T08:16:43.261Z,17.20
2022-10-17T08:21:46.944Z,15.30
2022-10-17T08:26:51.830Z,14.40
2022-10-17T08:31:58.664Z,14.00
2022-10-17T08:37:04.220Z,11.70
2022-10-17T08:42:25.991Z,15.90
2022-10-17T08:47:45.555Z,21.60
2022-10-17T08:52:56.456Z,16.60
2022-10-17T08:57:59.241Z,14.70
2022-10-17T09:03:23.773Z,14.50
2022-10-17T09:08:44.452Z,15.10
2022-10-17T09:14:02.897Z,15.50
2022-10-17T09:19:24.467Z,12.00
2022-10-17T09:24:44.577Z,10.90
2022-10-17T09:29:49.998Z,12.50
2022-10-17T09:34:53.864Z,10.30
2022-10-17T09:39:56.955Z,5.80
2022-10-17T09:45:26.802Z,7.80
2022-10-17T09:50:35.021Z,7.80
2022-10-17T09:55:48.498Z,5.30
2022-10-17T10:00:51.214Z,6.10
2022-10-17T10:05:59.734Z,3.50
2022-10-17T10:11:06.558Z,3.60
2022-10-17T10:16:21.000Z,4.60
2022-10-17T10:21:26.830Z,4.60
2022-10-17T10:26:40.928Z,6.30
2022-10-17T10:31:44.138Z,4.80
2022-10-17T10:37:14.708Z,6.10
2022-10-17T10:42:27.159Z,4.90
2022-10-17T10:47:32.649Z,5.90
2022-10-17T10:52:46.337Z,5.20
2022-10-17T10:57:53.149Z,4.20
2022-10-17T11:03:12.826Z,4.60
2022-10-17T11:08:49.117Z,4.30
2022-10-17T11:14:00.739Z,4.10
2022-10-17T11:19:21.140Z,4.90
2022-10-17T11:24:27.936Z,5.40
2022-10-17T11:29:38.518Z,4.00
2022-10-17T11:34:48.230Z,5.80
2022-10-17T11:40:03.212Z,5.50
2022-10-17T11:45:14.112Z,5.60
2022-10-17T11:56:02.181Z,5.00
2022-10-17T12:01:19.834Z,4.70
2022-10-17T12:06:27.098Z,5.10
2022-10-17T12:11:58.329Z,6.50
2022-10-17T12:17:02.640Z,5.30
2022-10-17T12:22:28.689Z,6.00
2022-10-17T12:27:42.297Z,5.90
2022-10-17T12:38:20.901Z,6.30
2022-10-17T12:43:29.670Z,7.00
2022-10-17T12:48:38.608Z,7.70
2022-10-17T12:54:02.689Z,8.00
2022-10-17T13:04:20.831Z,10.10
2022-10-17T13:09:32.634Z,9.70
2022-10-17T13:14:35.440Z,10.50
2022-10-17T13:19:44.227Z,11.20
2022-10-17T13:24:48.179Z,12.50
2022-10-17T13:29:50.955Z,12.00
2022-10-17T13:35:09.405Z,12.50
2022-10-17T13:40:40.930Z,12.20
2022-10-17T13:45:39.695Z,16.00
2022-10-17T13:50:44.794Z,13.90
2022-10-17T13:56:15.753Z,12.90
2022-10-17T14:01:21.307Z,12.70
2022-10-17T14:06:31.352Z,12.70
2022-10-17T14:11:37.135Z,13.00
2022-10-17T14:16:42.170Z,13.90
2022-10-17T14:21:49.388Z,13.20
2022-10-17T14:26:54.308Z,14.90
2022-10-17T14:32:00.214Z,15.80
2022-10-17T14:37:10.043Z,14.70
2022-10-17T14:42:19.392Z,16.00
2022-10-17T14:47:42.601Z,15.30
2022-10-17T14:53:03.739Z,15.10
2022-10-17T14:58:17.731Z,15.90
2022-10-17T15:03:20.496Z,16.80
2022-10-17T15:08:24.238Z,17.20
2022-10-17T15:13:28.488Z,18.80
2022-10-17T15:18:32.609Z,20.40
2022-10-17T15:23:35.230Z,21.60
2022-10-17T15:28:37.905Z,21.10
2022-10-17T15:33:41.101Z,23.40
2022-10-17T15:38:43.798Z,21.30
2022-10-17T15:43:48.560Z,25.60
2022-10-17T15:48:51.759Z,25.70
2022-10-17T15:53:54.453Z,26.10
2022-10-17T15:58:58.219Z,26.70
2022-10-17T16:04:01.164Z,25.90
2022-10-17T16:09:03.983Z,25.50
2022-10-17T16:14:18.271Z,27.10
2022-10-17T16:19:21.783Z,26.20
2022-10-17T16:24:25.074Z,30.80
2022-10-17T16:29:27.680Z,28.80
2022-10-17T16:34:31.812Z,29.00
2022-10-17T16:39:34.496Z,28.00
2022-10-17T16:44:37.116Z,28.10
2022-10-17T16:49:42.900Z,31.20
2022-10-17T16:54:47.932Z,31.90
2022-10-17T16:59:50.630Z,29.30
2022-10-17T17:04:53.250Z,34.60
2022-10-17T17:09:56.437Z,34.30
2022-10-17T17:14:59.236Z,32.30
2022-10-17T17:20:01.944Z,29.40
2022-10-17T17:25:05.149Z,30.60
2022-10-17T17:30:08.552Z,28.70
2022-10-17T17:35:11.157Z,28.80
2022-10-17T17:40:13.892Z,28.10
2022-10-17T17:45:16.748Z,24.70
2022-10-17T17:50:19.770Z,25.00
2022-10-17T17:55:22.383Z,24.50
2022-10-17T18:00:25.318Z,25.80
2022-10-17T18:05:28.220Z,23.30
2022-10-17T18:10:30.815Z,20.80
2022-10-17T18:15:33.567Z,23.80
2022-10-17T18:20:41.057Z,20.50
2022-10-17T18:25:52.869Z,21.80
2022-10-17T18:30:58.250Z,23.50
2022-10-17T18:36:10.450Z,23.70
2022-10-17T18:41:16.593Z,22.80
2022-10-17T18:51:24.896Z,23.70
2022-10-17T18:56:27.622Z,28.10
2022-10-17T19:01:30.332Z,25.80
2022-10-17T19:06:33.119Z,26.60
2022-10-17T19:11:37.418Z,24.10
2022-10-17T19:16:48.167Z,22.40
2022-10-17T19:21:51.880Z,20.20
2022-10-17T19:26:57.632Z,23.30
2022-10-17T19:32:01.095Z,21.50
2022-10-17T19:37:03.875Z,24.00
2022-10-17T19:42:07.139Z,25.00
2022-10-17T19:47:10.165Z,20.10
2022-10-17T19:52:13.354Z,21.30
2022-10-17T19:57:16.111Z,23.30
2022-10-17T20:02:18.777Z,23.60
2022-10-17T20:07:21.381Z,22.80
2022-10-17T20:12:24.096Z,21.00
2022-10-17T20:17:27.008Z,20.70
2022-10-17T20:22:30.198Z,21.40
2022-10-17T20:27:33.175Z,23.50
2022-10-17T20:32:39.461Z,18.90
2022-10-17T20:37:42.889Z,21.90
2022-10-17T20:42:45.672Z,21.70
2022-10-17T20:47:54.130Z,22.50
2022-10-17T20:53:12.349Z,24.40
2022-10-17T20:58:19.588Z,20.80
2022-10-17T21:03:22.491Z,21.70
2022-10-17T21:08:25.077Z,19.60
2022-10-17T21:13:27.673Z,24.10
2022-10-17T21:18:30.270Z,18.60
2022-10-17T21:23:32.865Z,21.20
2022-10-17T21:28:37.365Z,21.20
2022-10-17T21:33:41.738Z,22.00
2022-10-17T21:38:46.532Z,23.20
2022-10-17T21:43:53.704Z,20.50
2022-10-17T21:48:58.426Z,21.40
2022-10-17T21:54:01.073Z,21.90
2022-10-17T21:59:05.140Z,21.50
2022-10-17T22:04:11.256Z,17.90
2022-10-17T22:09:15.502Z,23.30
2022-10-17T22:14:21.171Z,25.80
2022-10-17T22:19:26.677Z,21.30
2022-10-17T22:24:29.341Z,23.40
2022-10-17T22:29:32.141Z,21.90
2022-10-17T22:34:34.922Z,22.00
2022-10-17T22:39:38.850Z,17.90
2022-10-17T22:44:41.487Z,22.30
2022-10-17T22:49:44.082Z,21.20
2022-10-17T22:54:46.702Z,25.00
2022-10-17T22:59:49.439Z,21.20
2022-10-17T23:04:52.071Z,20.90
2022-10-17T23:09:54.700Z,23.40
2022-10-17T23:14:57.347Z,31.70
2022-10-17T23:19:59.950Z,24.70
2022-10-17T23:25:02.840Z,22.20
2022-10-17T23:30:06.429Z,23.60
2022-10-17T23:35:10.059Z,20.60
2022-10-17T23:40:13.281Z,24.30
2022-10-17T23:45:16.042Z,22.20
2022-10-17T23:50:19.251Z,20.90
2022-10-17T23:55:21.990Z,23.10
